createdAt,value
2023-05-23T00:00:25.025Z,14.02
2023-05-23T00:03:13.271Z,14.18
2023-05-23T00:06:02.373Z,14.35
2023-05-23T00:08:51.526Z,13.40
2023-05-23T00:11:39.086Z,13.80
2023-05-23T00:14:26.839Z,12.18
2023-05-23T00:17:14.543Z,13.38
2023-05-23T00:20:02.731Z,13.43
2023-05-23T00:22:50.339Z,13.45
2023-05-23T00:25:41.526Z,11.88
2023-05-23T00:28:29.287Z,11.27
2023-05-23T00:31:17.786Z,11.77
2023-05-23T00:34:05.538Z,11.88
2023-05-23T00:36:54.238Z,11.82
2023-05-23T00:39:42.124Z,16.08
2023-05-23T00:42:32.665Z,11.13
2023-05-23T00:45:20.252Z,10.73
2023-05-23T00:48:09.122Z,14.38
2023-05-23T00:50:58.385Z,11.40
2023-05-23T00:53:46.825Z,11.15
2023-05-23T00:56:34.376Z,16.30
2023-05-23T00:59:26.014Z,12.75
2023-05-23T01:02:14.404Z,11.67
2023-05-23T01:05:02.607Z,11.23
2023-05-23T01:07:52.074Z,13.80
2023-05-23T01:10:40.356Z,12.35
2023-05-23T01:13:40.771Z,10.75
2023-05-23T01:16:43.389Z,11.68
2023-05-23T01:19:56.633Z,11.68
2023-05-23T01:23:34.060Z,12.40
2023-05-23T01:26:48.290Z,11.35
2023-05-23T01:29:46.079Z,12.02
2023-05-23T01:32:34.345Z,12.65
2023-05-23T01:35:27.586Z,14.45
2023-05-23T01:38:15.130Z,12.07
2023-05-23T01:41:02.753Z,13.23
2023-05-23T01:43:50.755Z,11.43
2023-05-23T01:46:42.129Z,12.98
2023-05-23T01:49:31.793Z,12.43
2023-05-23T01:52:20.216Z,14.02
2023-05-23T01:55:12.187Z,14.70
2023-05-23T01:58:01.776Z,14.57
2023-05-23T02:00:49.851Z,12.02
2023-05-23T02:03:39.390Z,12.30
2023-05-23T02:06:27.100Z,14.82
2023-05-23T02:09:14.660Z,14.05
2023-05-23T02:12:02.395Z,15.52
2023-05-23T02:14:52.230Z,12.95
2023-05-23T02:17:41.358Z,15.13
2023-05-23T02:20:30.382Z,13.65
2023-05-23T02:23:17.980Z,14.18
2023-05-23T02:26:05.740Z,14.73
2023-05-23T02:28:53.290Z,14.50
2023-05-23T02:31:40.744Z,14.80
2023-05-23T02:34:28.628Z,14.80
2023-05-23T02:37:17.802Z,14.07
2023-05-23T02:40:07.592Z,13.80
2023-05-23T02:42:57.308Z,14.25
2023-05-23T02:45:44.991Z,13.13
2023-05-23T02:48:32.298Z,11.43
2023-05-23T02:51:20.569Z,12.80
2023-05-23T02:54:09.599Z,12.32
2023-05-23T02:56:58.571Z,12.95
2023-05-23T02:59:48.719Z,11.27
2023-05-23T03:02:36.499Z,11.88
2023-05-23T03:05:24.431Z,12.23
2023-05-23T03:08:12.091Z,11.27
2023-05-23T03:11:00.765Z,11.70
2023-05-23T03:13:48.517Z,12.48
2023-05-23T03:16:36.077Z,14.45
2023-05-23T03:19:23.801Z,13.75
2023-05-23T03:22:11.374Z,13.23
2023-05-23T03:24:58.811Z,13.75
2023-05-23T03:27:47.725Z,17.35
2023-05-23T03:30:35.718Z,14.20
2023-05-23T03:33:23.362Z,12.98
2023-05-23T03:36:10.898Z,11.73
2023-05-23T03:38:58.410Z,12.05
2023-05-23T03:41:47.355Z,13.32
2023-05-23T03:44:36.268Z,12.18
2023-05-23T03:47:24.974Z,13.77
2023-05-23T03:50:12.964Z,13.85
2023-05-23T03:53:00.881Z,14.70
2023-05-23T03:55:48.313Z,16.42
2023-05-23T03:58:36.059Z,14.40
2023-05-23T04:01:25.104Z,14.55
2023-05-23T04:04:12.837Z,14.65
2023-05-23T04:07:01.613Z,16.13
2023-05-23T04:09:49.140Z,19.60
2023-05-23T04:12:36.740Z,23.02
2023-05-23T04:15:28.024Z,22.98
2023-05-23T04:18:17.649Z,17.58
2023-05-23T04:21:05.453Z,16.45
2023-05-23T04:23:53.114Z,21.70
2023-05-23T04:26:40.548Z,21.70
2023-05-23T04:29:31.550Z,25.42
2023-05-23T04:32:23.090Z,26.48
2023-05-23T04:35:14.304Z,22.13
2023-05-23T04:38:03.968Z,22.65
2023-05-23T04:40:52.644Z,17.40
2023-05-23T04:43:42.586Z,17.35
2023-05-23T04:46:30.344Z,15.48
2023-05-23T04:49:18.276Z,15.35
2023-05-23T04:52:07.530Z,17.90
2023-05-23T04:54:56.126Z,18.88
2023-05-23T04:57:43.830Z,20.17
2023-05-23T05:00:31.522Z,21.05
2023-05-23T05:03:19.718Z,14.45
2023-05-23T05:06:08.204Z,13.18
2023-05-23T05:08:57.110Z,12.18
2023-05-23T05:11:44.944Z,13.65
2023-05-23T05:14:32.655Z,16.50
2023-05-23T05:17:20.235Z,13.38
2023-05-23T05:20:11.355Z,13.32
2023-05-23T05:22:59.488Z,15.75
2023-05-23T05:25:48.926Z,14.70
2023-05-23T05:28:36.709Z,13.55
2023-05-23T05:31:24.152Z,14.18
2023-05-23T05:34:11.817Z,13.15
2023-05-23T05:36:59.447Z,15.30
2023-05-23T05:39:47.177Z,15.40
2023-05-23T05:42:35.987Z,15.77
2023-05-23T05:45:23.747Z,15.80
2023-05-23T05:48:11.870Z,16.60
2023-05-23T05:51:01.319Z,16.13
2023-05-23T05:53:49.652Z,16.25
2023-05-23T05:56:37.182Z,19.10
2023-05-23T05:59:26.210Z,17.60
2023-05-23T06:02:14.177Z,18.42
2023-05-23T06:05:02.070Z,23.73
2023-05-23T06:07:51.257Z,18.77
2023-05-23T06:10:40.243Z,23.40
2023-05-23T06:13:28.524Z,23.02
2023-05-23T06:16:18.007Z,23.92
2023-05-23T06:19:06.230Z,16.50
2023-05-23T06:21:55.272Z,16.02
2023-05-23T06:24:43.187Z,11.68
2023-05-23T06:27:31.059Z,11.70
2023-05-23T06:30:18.917Z,10.15
2023-05-23T06:33:08.264Z,12.05
2023-05-23T06:35:56.009Z,11.65
2023-05-23T06:38:44.228Z,14.40
2023-05-23T06:41:32.059Z,13.68
2023-05-23T06:44:19.769Z,15.23
2023-05-23T06:47:07.762Z,12.45
2023-05-23T06:49:57.092Z,11.57
2023-05-23T06:52:46.787Z,11.55
2023-05-23T06:55:34.916Z,10.40
2023-05-23T06:58:25.162Z,12.90
2023-05-23T07:01:13.289Z,12.77
2023-05-23T07:04:01.110Z,10.63
2023-05-23T07:06:52.710Z,10.15
2023-05-23T07:09:41.092Z,9.63
2023-05-23T07:12:28.580Z,12.52
2023-05-23T07:15:16.318Z,12.38
2023-05-23T07:18:07.307Z,10.23
2023-05-23T07:20:55.235Z,10.15
2023-05-23T07:24:09.527Z,9.93
2023-05-23T07:26:57.233Z,10.38
2023-05-23T07:29:45.493Z,12.07
2023-05-23T07:32:34.291Z,10.77
2023-05-23T07:35:28.660Z,11.48
2023-05-23T07:38:17.418Z,12.70
2023-05-23T07:41:11.684Z,12.23
2023-05-23T07:44:00.197Z,12.07
2023-05-23T07:46:48.049Z,11.38
2023-05-23T07:49:36.403Z,10.60
2023-05-23T07:52:24.084Z,15.18
2023-05-23T07:55:11.939Z,11.13
2023-05-23T07:58:01.592Z,12.02
2023-05-23T08:00:50.402Z,9.73
2023-05-23T08:03:39.494Z,13.18
2023-05-23T08:06:36.234Z,12.68
2023-05-23T08:09:24.596Z,10.13
2023-05-23T08:12:12.674Z,11.80
2023-05-23T08:15:02.001Z,10.85
2023-05-23T08:17:50.298Z,13.15
2023-05-23T08:20:43.856Z,11.98
2023-05-23T08:23:33.679Z,11.80
2023-05-23T08:26:21.927Z,12.18
2023-05-23T08:29:10.764Z,9.25
2023-05-23T08:32:00.013Z,9.65
2023-05-23T08:34:47.953Z,11.40
2023-05-23T08:37:35.712Z,11.38
2023-05-23T08:40:24.376Z,12.10
2023-05-23T08:43:12.513Z,12.85
2023-05-23T08:46:02.739Z,15.68
2023-05-23T08:48:54.868Z,15.10
2023-05-23T08:51:45.024Z,15.65
2023-05-23T08:54:36.670Z,13.52
2023-05-23T08:57:25.824Z,11.93
2023-05-23T09:00:16.664Z,12.25
2023-05-23T09:03:05.054Z,13.38
2023-05-23T09:05:56.071Z,11.95
2023-05-23T09:08:46.053Z,11.80
2023-05-23T09:11:36.276Z,10.52
2023-05-23T09:14:24.634Z,9.23
2023-05-23T09:17:12.296Z,10.30
2023-05-23T09:20:00.651Z,13.32
2023-05-23T09:22:50.628Z,11.18
2023-05-23T09:25:47.794Z,10.02
2023-05-23T09:28:37.822Z,11.05
2023-05-23T09:31:29.330Z,11.32
2023-05-23T09:34:17.573Z,9.27
2023-05-23T09:37:07.298Z,8.65
2023-05-23T09:40:01.696Z,8.98
2023-05-23T09:42:52.641Z,8.00
2023-05-23T09:45:40.986Z,8.70
2023-05-23T09:48:32.293Z,7.35
2023-05-23T09:51:22.203Z,8.13
2023-05-23T09:54:11.046Z,6.93
2023-05-23T09:57:04.413Z,9.57
2023-05-23T09:59:55.355Z,8.38
2023-05-23T10:02:59.533Z,7.95
2023-05-23T10:05:50.255Z,6.38
2023-05-23T10:08:44.237Z,8.00
2023-05-23T10:12:37.999Z,8.43
2023-05-23T10:15:36.355Z,8.10
2023-05-23T10:18:30.430Z,7.32
2023-05-23T10:21:25.555Z,6.88
2023-05-23T10:24:15.327Z,7.25
2023-05-23T10:27:04.060Z,5.65
2023-05-23T10:29:53.616Z,6.57
2023-05-23T10:32:43.638Z,6.22
2023-05-23T10:35:46.371Z,6.35
2023-05-23T10:38:44.407Z,6.22
2023-05-23T10:41:44.400Z,6.65
2023-05-23T10:44:33.316Z,6.32
2023-05-23T10:47:29.668Z,6.00
2023-05-23T10:50:32.831Z,7.10
2023-05-23T10:53:20.538Z,7.40
2023-05-23T10:56:10.555Z,7.30
2023-05-23T10:58:58.922Z,7.15
2023-05-23T11:01:46.744Z,8.57
2023-05-23T11:04:36.174Z,6.78
2023-05-23T11:07:38.615Z,5.80
2023-05-23T11:13:13.749Z,5.72
2023-05-23T11:16:01.423Z,6.15
2023-05-23T11:18:49.392Z,5.82
2023-05-23T11:21:40.044Z,5.60
2023-05-23T11:24:52.725Z,5.57
2023-05-23T11:27:42.466Z,6.00
2023-05-23T11:30:30.589Z,6.60
2023-05-23T11:33:19.044Z,5.97
2023-05-23T11:36:09.753Z,5.55
2023-05-23T11:39:04.020Z,5.47
2023-05-23T11:42:09.913Z,5.28
2023-05-23T11:44:58.085Z,4.43
2023-05-23T11:47:46.139Z,4.15
2023-05-23T11:50:35.159Z,4.45
2023-05-23T11:53:25.797Z,3.75
2023-05-23T11:56:17.265Z,3.90
2023-05-23T11:59:04.956Z,3.95
2023-05-23T12:01:52.955Z,4.70
2023-05-23T12:04:41.274Z,5.05
2023-05-23T12:07:29.102Z,4.50
2023-05-23T12:10:21.886Z,3.95
2023-05-23T12:13:11.353Z,4.00
2023-05-23T12:16:02.589Z,3.83
2023-05-23T12:18:50.819Z,4.20
2023-05-23T12:21:47.389Z,5.93
2023-05-23T12:24:34.913Z,3.92
2023-05-23T12:27:31.472Z,5.00
2023-05-23T12:30:20.910Z,4.97
2023-05-23T12:33:10.641Z,5.97
2023-05-23T12:35:59.098Z,5.22
2023-05-23T12:38:47.131Z,4.88
2023-05-23T12:41:35.180Z,4.85
2023-05-23T12:44:23.456Z,5.25
2023-05-23T12:47:13.305Z,4.30
2023-05-23T12:50:01.768Z,4.80
2023-05-23T12:52:49.894Z,3.90
2023-05-23T12:55:39.461Z,3.92
2023-05-23T12:58:31.438Z,3.75
2023-05-23T13:01:19.304Z,3.83
2023-05-23T13:04:08.770Z,6.85
2023-05-23T13:06:56.989Z,5.00
2023-05-23T13:09:45.018Z,4.68
2023-05-23T13:12:36.103Z,4.18
2023-05-23T13:15:24.642Z,3.60
2023-05-23T13:18:12.215Z,3.55
2023-05-23T13:21:01.663Z,3.42
2023-05-23T13:23:50.569Z,4.10
2023-05-23T13:26:38.597Z,3.95
2023-05-23T13:29:26.852Z,9.35
2023-05-23T13:32:14.476Z,8.85
2023-05-23T13:35:02.422Z,6.82
2023-05-23T13:37:51.265Z,4.55
2023-05-23T13:40:38.904Z,5.93
2023-05-23T13:43:27.057Z,6.60
2023-05-23T13:46:15.052Z,6.47
2023-05-23T13:49:02.818Z,4.22
2023-05-23T13:51:51.145Z,3.47
2023-05-23T13:54:41.574Z,3.38
2023-05-23T13:57:30.183Z,3.40
2023-05-23T14:00:18.749Z,5.95
2023-05-23T14:03:06.733Z,4.28
2023-05-23T14:05:54.274Z,2.88
2023-05-23T14:08:42.361Z,3.47
2023-05-23T14:11:31.515Z,4.00
2023-05-23T14:14:19.568Z,3.35
2023-05-23T14:17:07.523Z,4.25
2023-05-23T14:19:55.315Z,4.82
2023-05-23T14:22:45.461Z,6.60
2023-05-23T14:25:33.316Z,8.48
2023-05-23T14:28:22.349Z,10.70
2023-05-23T14:31:10.606Z,12.15
2023-05-23T14:33:58.968Z,11.93
2023-05-23T14:36:47.267Z,12.38
2023-05-23T14:39:36.036Z,12.48
2023-05-23T14:42:23.878Z,11.07
2023-05-23T14:45:13.925Z,12.25
2023-05-23T14:48:02.842Z,12.57
2023-05-23T14:50:50.919Z,13.32
2023-05-23T14:53:38.563Z,11.40
2023-05-23T14:56:27.062Z,10.60
2023-05-23T14:59:15.221Z,9.77
2023-05-23T15:02:05.062Z,9.88
2023-05-23T15:04:53.158Z,10.43
2023-05-23T15:07:40.713Z,6.55
2023-05-23T15:10:28.133Z,3.85
2023-05-23T15:13:16.073Z,6.28
2023-05-23T15:16:04.384Z,4.40
2023-05-23T15:18:53.230Z,5.90
2023-05-23T15:21:49.597Z,8.63
2023-05-23T15:24:40.772Z,8.95
2023-05-23T15:27:28.890Z,8.27
2023-05-23T15:30:16.650Z,10.30
2023-05-23T15:33:05.508Z,9.55
2023-05-23T15:35:54.858Z,7.70
2023-05-23T15:38:43.833Z,7.65
2023-05-23T15:41:36.962Z,6.70
2023-05-23T15:44:29.360Z,6.05
2023-05-23T15:47:18.798Z,4.88
2023-05-23T15:50:08.262Z,4.65
2023-05-23T15:52:57.373Z,6.03
2023-05-23T15:55:45.194Z,4.57
2023-05-23T15:58:32.812Z,4.18
2023-05-23T16:01:20.639Z,5.68
2023-05-23T16:04:08.238Z,5.85
2023-05-23T16:06:55.856Z,11.43
2023-05-23T16:09:44.666Z,12.63
2023-05-23T16:12:32.488Z,11.52
2023-05-23T16:15:20.742Z,4.18
2023-05-23T16:18:08.775Z,3.60
2023-05-23T16:20:57.121Z,3.63
2023-05-23T16:23:45.865Z,4.97
2023-05-23T16:26:35.236Z,8.15
2023-05-23T16:29:23.285Z,10.70
2023-05-23T16:32:12.536Z,8.80
2023-05-23T16:35:00.244Z,8.75
2023-05-23T16:37:48.780Z,6.60
2023-05-23T16:40:36.861Z,5.45
2023-05-23T16:43:27.379Z,6.35
2023-05-23T16:46:16.392Z,3.28
2023-05-23T16:49:05.788Z,2.85
2023-05-23T16:51:54.013Z,2.72
2023-05-23T16:54:41.911Z,5.85
2023-05-23T16:57:29.520Z,6.40
2023-05-23T17:00:20.683Z,7.10
2023-05-23T17:03:09.113Z,4.35
2023-05-23T17:05:59.993Z,4.78
2023-05-23T17:08:47.856Z,6.10
2023-05-23T17:11:35.652Z,5.40
2023-05-23T17:14:24.271Z,6.03
2023-05-23T17:17:13.827Z,5.78
2023-05-23T17:20:05.379Z,5.57
2023-05-23T17:22:53.386Z,3.60
2023-05-23T17:25:41.079Z,3.17
2023-05-23T17:28:28.724Z,4.95
2023-05-23T17:31:18.410Z,2.42
2023-05-23T17:34:07.636Z,2.40
2023-05-23T17:36:55.731Z,2.72
2023-05-23T17:39:43.430Z,2.22
2023-05-23T17:42:31.262Z,3.95
2023-05-23T17:45:18.916Z,2.85
2023-05-23T17:48:07.518Z,2.42
2023-05-23T17:50:56.552Z,1.70
2023-05-23T17:53:44.221Z,1.70
2023-05-23T17:56:32.181Z,2.05
2023-05-23T17:59:19.934Z,2.03
2023-05-23T18:02:09.303Z,2.10
2023-05-23T18:04:57.463Z,1.83
2023-05-23T18:07:47.052Z,2.20
2023-05-23T18:10:34.763Z,1.75
2023-05-23T18:13:22.433Z,1.83
2023-05-23T18:16:09.898Z,2.55
2023-05-23T18:18:58.893Z,2.35
2023-05-23T18:21:46.531Z,2.15
2023-05-23T18:24:36.099Z,2.20
2023-05-23T18:27:24.101Z,2.05
2023-05-23T18:30:12.699Z,2.30
2023-05-23T18:33:01.020Z,2.58
2023-05-23T18:35:51.075Z,3.10
2023-05-23T18:38:42.202Z,3.42
2023-05-23T18:44:23.246Z,2.35
2023-05-23T18:47:12.181Z,1.80
2023-05-23T18:50:00.448Z,2.00
2023-05-23T18:52:51.362Z,1.92
2023-05-23T18:55:39.145Z,3.95
2023-05-23T18:58:28.468Z,3.20
2023-05-23T19:01:16.683Z,3.50
2023-05-23T19:04:04.582Z,4.15
2023-05-23T19:06:52.875Z,4.05
2023-05-23T19:09:40.544Z,3.75
2023-05-23T19:12:28.455Z,3.72
2023-05-23T19:15:20.530Z,3.72
2023-05-23T19:18:09.334Z,3.13
2023-05-23T19:20:57.731Z,3.22
2023-05-23T19:23:46.384Z,3.33
2023-05-23T19:26:36.445Z,4.47
2023-05-23T19:29:26.029Z,6.35
2023-05-23T19:32:15.387Z,6.10
2023-05-23T19:35:05.810Z,6.15
2023-05-23T19:37:53.503Z,6.65
2023-05-23T19:40:48.069Z,4.80
2023-05-23T19:43:36.627Z,5.00
2023-05-23T19:46:25.121Z,3.85
2023-05-23T19:49:17.413Z,3.45
2023-05-23T19:52:06.161Z,3.83
2023-05-23T19:54:54.084Z,3.85
2023-05-23T19:57:41.864Z,3.80
2023-05-23T20:00:30.171Z,3.53
2023-05-23T20:03:18.429Z,3.45
2023-05-23T20:06:13.561Z,4.38
2023-05-23T20:09:03.442Z,3.60
2023-05-23T20:11:51.615Z,4.00
2023-05-23T20:14:39.556Z,3.42
2023-05-23T20:17:27.338Z,3.50
2023-05-23T20:20:15.492Z,3.72
2023-05-23T20:23:05.537Z,4.00
2023-05-23T20:25:54.042Z,3.88
2023-05-23T20:28:41.859Z,4.13
2023-05-23T20:31:32.153Z,4.30
2023-05-23T20:34:22.926Z,6.10
2023-05-23T20:37:13.610Z,4.35
2023-05-23T20:40:03.459Z,3.88
2023-05-23T20:42:51.767Z,4.10
2023-05-23T20:45:39.693Z,4.25
2023-05-23T20:48:29.021Z,4.28
2023-05-23T20:51:16.974Z,3.53
2023-05-23T20:54:05.432Z,4.88
2023-05-23T20:56:54.515Z,4.05
2023-05-23T20:59:42.255Z,6.15
2023-05-23T21:02:30.209Z,4.38
2023-05-23T21:05:18.585Z,3.85
2023-05-23T21:08:07.027Z,5.28
2023-05-23T21:10:55.219Z,4.18
2023-05-23T21:13:46.016Z,4.80
2023-05-23T21:16:37.556Z,4.72
2023-05-23T21:19:25.288Z,4.90
2023-05-23T21:22:13.091Z,4.32
2023-05-23T21:25:01.469Z,3.70
2023-05-23T21:27:49.042Z,5.07
2023-05-23T21:30:38.897Z,4.47
2023-05-23T21:33:27.043Z,4.07
2023-05-23T21:36:14.701Z,5.18
2023-05-23T21:39:03.411Z,7.15
2023-05-23T21:41:51.138Z,5.40
2023-05-23T21:44:40.802Z,5.78
2023-05-23T21:47:30.336Z,4.72
2023-05-23T21:50:18.509Z,5.85
2023-05-23T21:53:06.433Z,6.13
2023-05-23T21:55:53.963Z,4.20
2023-05-23T21:58:41.487Z,5.32
2023-05-23T22:01:29.023Z,6.70
2023-05-23T22:04:20.167Z,7.22
2023-05-23T22:07:07.786Z,5.85
2023-05-23T22:09:56.285Z,5.47
2023-05-23T22:12:44.033Z,6.00
2023-05-23T22:15:32.508Z,4.47
2023-05-23T22:18:20.029Z,4.05
2023-05-23T22:21:09.395Z,8.98
2023-05-23T22:23:57.911Z,6.80
2023-05-23T22:26:45.825Z,3.88
2023-05-23T22:29:33.710Z,4.70
2023-05-23T22:32:21.401Z,4.55
2023-05-23T22:35:10.451Z,6.10
2023-05-23T22:37:59.737Z,6.43
2023-05-23T22:40:47.942Z,7.70
2023-05-23T22:43:35.483Z,6.38
2023-05-23T22:46:23.023Z,5.72
2023-05-23T22:49:10.898Z,4.75
2023-05-23T22:51:59.282Z,5.22
2023-05-23T22:54:48.377Z,6.00
2023-05-23T22:57:36.230Z,6.47
2023-05-23T23:00:24.143Z,5.88
2023-05-23T23:03:12.863Z,6.85
2023-05-23T23:06:01.731Z,3.30
2023-05-23T23:08:49.873Z,8.68
2023-05-23T23:11:39.404Z,5.85
2023-05-23T23:14:27.325Z,4.93
2023-05-23T23:17:14.921Z,6.85
2023-05-23T23:20:04.192Z,8.00
2023-05-23T23:22:51.984Z,7.57
2023-05-23T23:25:40.205Z,6.25
2023-05-23T23:28:29.035Z,7.90
2023-05-23T23:31:16.719Z,7.15
2023-05-23T23:34:04.813Z,7.70
2023-05-23T23:36:52.653Z,8.18
2023-05-23T23:39:41.376Z,6.30
2023-05-23T23:42:33.850Z,5.47
2023-05-23T23:45:23.037Z,6.65
2023-05-23T23:48:10.904Z,6.40
2023-05-23T23:50:59.247Z,4.38
2023-05-23T23:53:49.273Z,6.55
2023-05-23T23:56:38.693Z,6.75
2023-05-23T23:59:26.821Z,6.18
